createdAt,value
2018-09-16T00:04:16.824Z,9.4
2018-09-16T00:10:17.188Z,9.3
2018-09-16T00:19:17.809Z,9.1
2018-09-16T00:25:18.157Z,9
2018-09-16T00:30:18.465Z,8.9
2018-09-16T00:33:18.618Z,8.8
2018-09-16T00:39:18.979Z,8.6
2018-09-16T00:43:19.261Z,8.5
2018-09-16T00:59:20.248Z,8.4
2018-09-16T01:00:20.272Z,8.5
2018-09-16T01:04:20.548Z,8.4
2018-09-16T01:05:20.571Z,8.5
2018-09-16T01:18:21.413Z,8.4
2018-09-16T01:19:21.427Z,8.5
2018-09-16T01:20:21.516Z,8.4
2018-09-16T01:23:21.680Z,8.3
2018-09-16T01:33:22.293Z,8.1
2018-09-16T01:34:22.413Z,8.3
2018-09-16T01:35:22.465Z,8.1
2018-09-16T01:42:22.934Z,8
2018-09-16T01:47:23.272Z,7.9
2018-09-16T01:54:23.656Z,7.7
2018-09-16T01:55:23.700Z,7.9
2018-09-16T01:57:23.797Z,7.7
2018-09-16T02:07:24.465Z,7.6
2018-09-16T02:13:24.750Z,7.5
2018-09-16T02:21:25.311Z,7.4
2018-09-16T02:24:25.507Z,7.5
2018-09-16T02:25:25.549Z,7.4
2018-09-16T02:35:26.100Z,7.2
2018-09-16T02:49:27.020Z,7.1
2018-09-16T02:50:27.062Z,7.2
2018-09-16T02:51:27.118Z,7.1
2018-09-16T02:59:27.577Z,7
2018-09-16T03:05:27.946Z,7.1
2018-09-16T03:06:28.008Z,7
2018-09-16T03:07:28.126Z,7.1
2018-09-16T03:08:28.129Z,7
2018-09-16T03:09:28.228Z,7.1
2018-09-16T03:19:28.821Z,7
2018-09-16T03:33:29.731Z,6.9
2018-09-16T03:42:30.274Z,6.7
2018-09-16T03:57:31.200Z,6.6
2018-09-16T04:01:31.456Z,6.7
2018-09-16T04:02:31.530Z,6.6
2018-09-16T04:17:32.442Z,6.7
2018-09-16T04:32:33.350Z,6.6
2018-09-16T04:33:33.527Z,6.7
2018-09-16T04:47:34.242Z,6.9
2018-09-16T04:48:34.340Z,6.7
2018-09-16T04:50:34.492Z,6.9
2018-09-16T04:54:34.696Z,6.7
2018-09-16T04:55:34.788Z,6.9
2018-09-16T04:56:34.782Z,6.7
2018-09-16T04:58:34.901Z,6.9
2018-09-16T04:59:34.959Z,6.7
2018-09-16T05:05:35.421Z,6.9
2018-09-16T05:12:35.800Z,7
2018-09-16T05:13:35.884Z,6.9
2018-09-16T05:14:35.891Z,7
2018-09-16T05:23:36.467Z,7.1
2018-09-16T05:30:36.876Z,7.2
2018-09-16T05:35:37.176Z,7.4
2018-09-16T05:40:37.510Z,7.5
2018-09-16T05:41:37.553Z,7.6
2018-09-16T05:45:37.792Z,7.7
2018-09-16T05:47:37.911Z,7.9
2018-09-16T05:49:38.040Z,8
2018-09-16T05:52:38.299Z,8.1
2018-09-16T05:53:38.556Z,8.3
2018-09-16T05:56:38.517Z,8.4
2018-09-16T05:59:38.645Z,8.5
2018-09-16T06:01:38.814Z,8.6
2018-09-16T06:04:39.075Z,8.8
2018-09-16T06:06:39.143Z,8.9
2018-09-16T06:08:39.231Z,9
2018-09-16T06:09:39.316Z,9.1
2018-09-16T06:10:39.411Z,9.3
2018-09-16T06:11:39.393Z,9.4
2018-09-16T06:12:39.471Z,9.5
2018-09-16T06:15:39.709Z,9.6
2018-09-16T06:17:39.756Z,9.8
2018-09-16T06:20:39.935Z,9.9
2018-09-16T06:22:40.143Z,10
2018-09-16T06:23:40.133Z,10.1
2018-09-16T06:24:40.246Z,10.3
2018-09-16T06:26:40.327Z,10.4
2018-09-16T06:27:40.364Z,10.6
2018-09-16T06:28:40.465Z,10.9
2018-09-16T06:29:40.520Z,11
2018-09-16T06:31:40.628Z,11.1
2018-09-16T06:32:40.714Z,11.3
2018-09-16T06:34:40.800Z,11.4
2018-09-16T06:38:41.094Z,11.5
2018-09-16T06:40:41.341Z,11.6
2018-09-16T06:42:41.311Z,11.8
2018-09-16T06:44:41.491Z,11.9
2018-09-16T06:47:41.605Z,12
2018-09-16T06:48:41.663Z,12.1
2018-09-16T06:49:41.728Z,12.2
2018-09-16T06:51:42.129Z,12.4
2018-09-16T06:53:42.007Z,12.5
2018-09-16T06:57:42.214Z,12.6
2018-09-16T06:59:42.369Z,12.8
2018-09-16T07:00:42.451Z,13.1
2018-09-16T07:01:42.521Z,13.6
2018-09-16T07:02:42.554Z,14.3
2018-09-16T07:03:42.590Z,14.4
2018-09-16T07:04:42.705Z,14.3
2018-09-16T07:06:42.776Z,14.1
2018-09-16T07:07:42.837Z,14.3
2018-09-16T07:09:42.960Z,14.4
2018-09-16T07:10:43.011Z,14.5
2018-09-16T07:11:43.134Z,14.4
2018-09-16T07:13:43.250Z,14.3
2018-09-16T07:18:43.557Z,14.4
2018-09-16T07:20:43.695Z,14.5
2018-09-16T07:21:43.705Z,14.6
2018-09-16T07:22:43.759Z,14.7
2018-09-16T07:25:43.937Z,14.9
2018-09-16T07:27:44.120Z,15
2018-09-16T07:28:44.135Z,15.1
2018-09-16T07:29:44.185Z,15.3
2018-09-16T07:32:44.435Z,15.4
2018-09-16T07:35:44.590Z,15.5
2018-09-16T07:36:44.648Z,15.6
2018-09-16T07:38:44.740Z,15.8
2018-09-16T07:41:44.988Z,15.9
2018-09-16T07:43:45.125Z,16
2018-09-16T07:45:45.262Z,16.1
2018-09-16T07:46:45.250Z,16.3
2018-09-16T07:49:45.484Z,16.4
2018-09-16T07:51:45.614Z,16.5
2018-09-16T07:53:45.677Z,16.6
2018-09-16T07:54:45.724Z,16.8
2018-09-16T07:57:45.913Z,16.9
2018-09-16T07:58:45.989Z,17
2018-09-16T07:59:46.041Z,17.1
2018-09-16T08:01:46.168Z,17.2
2018-09-16T08:02:46.235Z,17.4
2018-09-16T08:04:46.421Z,17.5
2018-09-16T08:05:46.437Z,17.6
2018-09-16T08:07:46.534Z,17.8
2018-09-16T08:08:46.642Z,17.9
2018-09-16T08:09:46.655Z,18
2018-09-16T08:11:46.835Z,18.1
2018-09-16T08:12:46.835Z,18.3
2018-09-16T08:13:46.939Z,18.4
2018-09-16T08:15:47.044Z,18.5
2018-09-16T08:18:47.220Z,18.6
2018-09-16T08:19:47.316Z,18.8
2018-09-16T08:21:47.450Z,18.9
2018-09-16T08:23:47.557Z,19
2018-09-16T08:24:47.617Z,19.1
2018-09-16T08:25:47.674Z,19.3
2018-09-16T08:26:47.733Z,19.5
2018-09-16T08:27:47.804Z,19.6
2018-09-16T08:28:47.864Z,19.8
2018-09-16T08:29:47.878Z,19.9
2018-09-16T08:30:47.976Z,20.1
2018-09-16T08:31:48.076Z,20.9
2018-09-16T08:32:48.147Z,21.4
2018-09-16T08:34:48.223Z,21.5
2018-09-16T08:35:48.340Z,22
2018-09-16T08:36:48.332Z,22.5
2018-09-16T08:37:48.387Z,23
2018-09-16T08:38:48.476Z,23.4
2018-09-16T08:39:48.548Z,23.7
2018-09-16T08:40:48.557Z,24.4
2018-09-16T08:41:48.623Z,25.3
2018-09-16T08:42:48.698Z,26.5
2018-09-16T08:43:48.768Z,27.6
2018-09-16T08:44:48.807Z,28.9
2018-09-16T08:45:48.874Z,29.9
2018-09-16T08:46:48.936Z,30.9
2018-09-16T08:47:49.016Z,31.6
2018-09-16T08:48:49.111Z,32
2018-09-16T08:49:49.158Z,31.6
2018-09-16T08:50:49.229Z,31.5
2018-09-16T08:51:49.300Z,31.8
2018-09-16T08:52:49.313Z,32.4
2018-09-16T08:53:49.438Z,33.1
2018-09-16T08:54:49.447Z,33.7
2018-09-16T08:55:49.535Z,34.2
2018-09-16T08:56:49.601Z,34.9
2018-09-16T08:57:49.659Z,35.5
2018-09-16T08:58:49.686Z,36
2018-09-16T08:59:49.765Z,36.6
2018-09-16T09:00:49.795Z,37.1
2018-09-16T09:01:49.877Z,37.5
2018-09-16T09:02:49.924Z,37.7
2018-09-16T09:03:49.998Z,38.1
2018-09-16T09:04:50.055Z,38.2
2018-09-16T09:05:50.108Z,38.5
2018-09-16T09:06:50.169Z,37.9
2018-09-16T09:07:50.251Z,37.4
2018-09-16T09:08:50.308Z,36.4
2018-09-16T09:09:50.403Z,36
2018-09-16T09:10:50.471Z,35.7
2018-09-16T09:11:50.519Z,35.6
2018-09-16T09:12:50.593Z,35.5
2018-09-16T09:13:50.647Z,35.7
2018-09-16T09:15:50.747Z,35.5
2018-09-16T09:17:50.889Z,35.2
2018-09-16T09:18:50.931Z,35.4
2018-09-16T09:19:50.970Z,35.2
2018-09-16T09:20:51.029Z,35.6
2018-09-16T09:21:51.092Z,36.2
2018-09-16T09:22:51.175Z,36.7
2018-09-16T09:23:51.251Z,37
2018-09-16T09:24:51.348Z,37.2
2018-09-16T09:25:51.399Z,37.4
2018-09-16T09:26:51.421Z,37.6
2018-09-16T09:27:51.487Z,38
2018-09-16T09:28:51.590Z,38.2
2018-09-16T09:29:51.627Z,38.4
2018-09-16T09:30:51.653Z,38.2
2018-09-16T09:31:51.711Z,38.4
2018-09-16T09:32:51.816Z,38.2
2018-09-16T09:33:51.832Z,38.1
2018-09-16T09:34:51.896Z,38.4
2018-09-16T09:35:51.960Z,38.7
2018-09-16T09:36:52.015Z,39
2018-09-16T09:37:52.077Z,39.2
2018-09-16T09:38:52.155Z,39.5
2018-09-16T09:39:52.203Z,39.9
2018-09-16T09:40:52.263Z,40.1
2018-09-16T09:41:52.342Z,40.2
2018-09-16T09:42:52.463Z,40.6
2018-09-16T09:43:52.470Z,40.8
2018-09-16T09:44:52.584Z,40.9
2018-09-16T09:45:52.590Z,41
2018-09-16T09:46:52.634Z,41.1
2018-09-16T09:47:52.744Z,41.4
2018-09-16T09:48:52.770Z,41.5
2018-09-16T09:49:52.828Z,41.7
2018-09-16T09:50:52.915Z,42
2018-09-16T09:51:52.952Z,42.2
2018-09-16T09:53:53.067Z,42.5
2018-09-16T09:56:53.353Z,42.6
2018-09-16T09:58:53.492Z,42.7
2018-09-16T09:59:53.497Z,42.9
2018-09-16T10:00:53.538Z,43
2018-09-16T10:02:53.685Z,43.1
2018-09-16T10:04:53.784Z,43.3
2018-09-16T10:05:53.889Z,43.4
2018-09-16T10:06:53.920Z,43.6
2018-09-16T10:07:53.997Z,43.7
2018-09-16T10:10:54.181Z,43.9
2018-09-16T10:12:54.278Z,44
2018-09-16T10:13:54.352Z,44.1
2018-09-16T10:15:54.487Z,44.2
2018-09-16T10:16:54.526Z,44.4
2018-09-16T10:17:54.585Z,44.5
2018-09-16T10:18:54.619Z,44.6
2018-09-16T10:19:54.670Z,44.7
2018-09-16T10:20:54.793Z,44.9
2018-09-16T10:23:54.927Z,44.7
2018-09-16T10:25:55.042Z,44.6
2018-09-16T10:26:55.138Z,44.5
2018-09-16T10:27:55.196Z,44.6
2018-09-16T10:28:55.278Z,44.5
2018-09-16T10:30:55.352Z,44.6
2018-09-16T10:31:55.441Z,44.5
2018-09-16T10:32:55.504Z,43.5
2018-09-16T10:33:55.607Z,41.6
2018-09-16T10:34:55.653Z,40.8
2018-09-16T10:35:55.728Z,41.1
2018-09-16T10:36:55.761Z,41.6
2018-09-16T10:37:55.793Z,42
2018-09-16T10:38:55.913Z,42.4
2018-09-16T10:40:56.040Z,40.5
2018-09-16T10:41:56.029Z,38.9
2018-09-16T10:42:56.093Z,37.4
2018-09-16T10:43:56.180Z,36.1
2018-09-16T10:44:56.219Z,35
2018-09-16T10:45:56.338Z,35.1
2018-09-16T10:46:56.357Z,36.5
2018-09-16T10:47:56.466Z,37.5
2018-09-16T10:48:56.508Z,38.4
2018-09-16T10:49:56.582Z,39.1
2018-09-16T10:50:56.689Z,39.7
2018-09-16T10:51:56.705Z,40.2
2018-09-16T10:52:56.754Z,40.8
2018-09-16T10:53:56.770Z,40.4
2018-09-16T10:54:56.890Z,40.9
2018-09-16T10:55:56.970Z,41.2
2018-09-16T10:56:57.023Z,41.6
2018-09-16T10:57:57.057Z,41.9
2018-09-16T10:58:57.117Z,42
2018-09-16T11:01:57.315Z,41.9
2018-09-16T11:02:57.362Z,41.5
2018-09-16T11:03:57.449Z,41.1
2018-09-16T11:04:57.490Z,40.4
2018-09-16T11:05:57.554Z,39.7
2018-09-16T11:06:57.604Z,39.4
2018-09-16T11:07:57.741Z,39
2018-09-16T11:08:57.719Z,38.6
2018-09-16T11:09:57.773Z,38.2
2018-09-16T11:10:57.824Z,37.1
2018-09-16T11:12:57.948Z,36.9
2018-09-16T11:13:58.039Z,35.5
2018-09-16T11:14:58.111Z,34.5
2018-09-16T11:15:58.242Z,33.9
2018-09-16T11:16:58.226Z,34.4
2018-09-16T11:17:58.302Z,35.2
2018-09-16T11:18:58.314Z,36
2018-09-16T11:19:58.392Z,36.5
2018-09-16T11:20:58.507Z,37.2
2018-09-16T11:21:58.597Z,38
2018-09-16T11:22:58.629Z,38.6
2018-09-16T11:23:58.649Z,38.9
2018-09-16T11:24:58.726Z,39.2
2018-09-16T11:26:58.811Z,39.5
2018-09-16T11:27:58.930Z,39.6
2018-09-16T11:28:58.950Z,39.9
2018-09-16T11:29:59.074Z,40.1
2018-09-16T11:30:59.095Z,40.2
2018-09-16T11:31:59.180Z,40.6
2018-09-16T11:32:59.198Z,41.2
2018-09-16T11:33:59.240Z,41.5
2018-09-16T11:34:59.313Z,41.1
2018-09-16T11:35:59.567Z,40.9
2018-09-16T11:36:59.489Z,40.8
2018-09-16T11:37:59.544Z,40.4
2018-09-16T11:38:59.608Z,39.7
2018-09-16T11:39:59.660Z,39.6
2018-09-16T11:41:59.787Z,39.4
2018-09-16T11:43:59.909Z,38.6
2018-09-16T11:44:59.972Z,38.5
2018-09-16T11:46:00.032Z,38.9
2018-09-16T11:47:00.056Z,38
2018-09-16T11:48:00.172Z,37.5
2018-09-16T11:49:00.185Z,36.6
2018-09-16T11:50:01.741Z,35.7
2018-09-16T11:52:01.632Z,37.1
2018-09-16T11:53:00.913Z,38
2018-09-16T11:54:01.737Z,38.4
2018-09-16T11:55:00.990Z,38.7
2018-09-16T11:56:01.884Z,39.2
2018-09-16T11:57:01.783Z,39.5
2018-09-16T11:59:00.929Z,40
2018-09-16T12:00:01.810Z,40.6
2018-09-16T12:01:00.964Z,41.2
2018-09-16T12:02:01.540Z,42
2018-09-16T12:03:01.088Z,42.4
2018-09-16T12:04:01.114Z,42.6
2018-09-16T12:05:01.313Z,43
2018-09-16T12:06:02.378Z,43.4
2018-09-16T12:07:01.573Z,43.7
2018-09-16T12:08:01.556Z,44
2018-09-16T12:10:01.602Z,44.1
2018-09-16T12:11:01.676Z,44.2
2018-09-16T12:12:01.717Z,44.4
2018-09-16T12:13:01.752Z,44.5
2018-09-16T12:15:01.784Z,44.6
2018-09-16T12:16:01.854Z,44.9
2018-09-16T12:17:01.914Z,45.1
2018-09-16T12:18:01.974Z,45.2
2018-09-16T12:19:02.042Z,45.4
2018-09-16T12:20:02.097Z,45.6
2018-09-16T12:21:02.169Z,45.9
2018-09-16T12:22:02.215Z,46.1
2018-09-16T12:23:02.350Z,46.2
2018-09-16T12:24:02.388Z,46.4
2018-09-16T12:25:02.468Z,46.5
2018-09-16T12:26:02.531Z,46.6
2018-09-16T12:27:02.585Z,46.9
2018-09-16T12:28:02.623Z,47
2018-09-16T12:30:02.774Z,47.1
2018-09-16T12:32:02.904Z,47
2018-09-16T12:33:02.979Z,46.7
2018-09-16T12:34:03.024Z,46.6
2018-09-16T12:35:03.113Z,46.4
2018-09-16T12:36:03.160Z,46.2
2018-09-16T12:38:03.256Z,46.4
2018-09-16T12:39:03.333Z,45.6
2018-09-16T12:40:03.393Z,45
2018-09-16T12:42:03.510Z,44.4
2018-09-16T12:43:03.565Z,44.1
2018-09-16T12:44:03.578Z,43.6
2018-09-16T12:45:03.645Z,44.1
2018-09-16T12:46:03.699Z,44.5
2018-09-16T12:47:03.791Z,44.4
2018-09-16T12:49:03.886Z,44.2
2018-09-16T12:50:03.993Z,43.6
2018-09-16T12:51:04.009Z,43.3
2018-09-16T12:52:04.074Z,43
2018-09-16T12:54:04.269Z,43.3
2018-09-16T12:55:04.298Z,43.6
2018-09-16T12:56:04.318Z,44.1
2018-09-16T12:57:04.475Z,44.4
2018-09-16T12:58:04.502Z,44.5
2018-09-16T12:59:04.802Z,44.6
2018-09-16T13:00:04.573Z,45
2018-09-16T13:01:04.674Z,45.4
2018-09-16T13:02:04.754Z,45.5
2018-09-16T13:03:04.754Z,45.4
2018-09-16T13:04:04.840Z,44.9
2018-09-16T13:05:04.881Z,44.1
2018-09-16T13:06:04.935Z,43.4
2018-09-16T13:07:05.014Z,42.5
2018-09-16T13:08:05.083Z,41.6
2018-09-16T13:09:05.129Z,40.8
2018-09-16T13:10:05.194Z,39.7
2018-09-16T13:11:05.280Z,38.7
2018-09-16T13:12:05.322Z,38
2018-09-16T13:13:05.409Z,37.2
2018-09-16T13:14:05.465Z,36.6
2018-09-16T13:15:05.542Z,36.2
2018-09-16T13:16:05.581Z,36
2018-09-16T13:18:05.746Z,35.7
2018-09-16T13:19:05.804Z,35.6
2018-09-16T13:20:05.815Z,35.2
2018-09-16T13:23:05.989Z,35.1
2018-09-16T13:24:06.072Z,35.2
2018-09-16T13:25:06.322Z,35.4
2018-09-16T13:26:06.263Z,35.9
2018-09-16T13:27:06.239Z,36.7
2018-09-16T13:28:06.322Z,37.4
2018-09-16T13:29:06.398Z,37.7
2018-09-16T13:30:06.493Z,38.1
2018-09-16T13:32:06.586Z,38.5
2018-09-16T13:33:06.657Z,39.1
2018-09-16T13:34:06.701Z,39.4
2018-09-16T13:35:06.751Z,39.6
2018-09-16T13:36:06.808Z,39.7
2018-09-16T13:37:06.850Z,40.1
2018-09-16T13:38:06.970Z,40.5
2018-09-16T13:39:06.965Z,41
2018-09-16T13:40:07.059Z,41.5
2018-09-16T13:41:07.095Z,41.9
2018-09-16T13:43:07.252Z,42.2
2018-09-16T13:44:07.335Z,42.4
2018-09-16T13:45:07.396Z,42.5
2018-09-16T13:46:07.416Z,42.7
2018-09-16T13:47:07.479Z,43
2018-09-16T13:48:07.528Z,43.1
2018-09-16T13:49:07.590Z,43.4
2018-09-16T13:50:07.654Z,43.6
2018-09-16T13:51:07.710Z,43.7
2018-09-16T13:54:07.894Z,43.6
2018-09-16T13:55:07.952Z,43.1
2018-09-16T13:56:08.021Z,42.7
2018-09-16T13:57:08.083Z,43
2018-09-16T13:58:08.142Z,43.1
2018-09-16T13:59:08.217Z,43
2018-09-16T14:02:08.454Z,42.7
2018-09-16T14:03:08.494Z,42.6
2018-09-16T14:04:08.573Z,42.5
2018-09-16T14:05:08.633Z,42.4
2018-09-16T14:06:08.677Z,42.6
2018-09-16T14:07:08.768Z,42.7
2018-09-16T14:10:08.941Z,42.6
2018-09-16T14:11:08.948Z,42.2
2018-09-16T14:12:09.066Z,42.1
2018-09-16T14:13:09.127Z,42
2018-09-16T14:14:09.165Z,41.7
2018-09-16T14:15:09.264Z,41.6
2018-09-16T14:16:09.325Z,41.4
2018-09-16T14:17:09.378Z,41
2018-09-16T14:18:09.442Z,40.4
2018-09-16T14:19:09.512Z,40
2018-09-16T14:20:09.567Z,39.7
2018-09-16T14:22:09.655Z,39.9
2018-09-16T14:23:09.721Z,40
2018-09-16T14:26:09.878Z,40.2
2018-09-16T14:27:09.934Z,40.4
2018-09-16T14:28:10.048Z,40.6
2018-09-16T14:30:10.123Z,40.5
2018-09-16T14:31:10.253Z,40.2
2018-09-16T14:32:10.324Z,40
2018-09-16T14:33:10.314Z,39.7
2018-09-16T14:34:10.406Z,39.5
2018-09-16T14:35:10.458Z,39.2
2018-09-16T14:36:10.547Z,39
2018-09-16T14:37:10.558Z,38.9
2018-09-16T14:39:10.701Z,38.7
2018-09-16T14:40:10.754Z,38.9
2018-09-16T14:41:10.800Z,39
2018-09-16T14:43:10.923Z,38.9
2018-09-16T14:44:11.026Z,38.7
2018-09-16T14:45:11.055Z,38.2
2018-09-16T14:46:11.128Z,37.6
2018-09-16T14:47:11.213Z,37
2018-09-16T14:48:11.282Z,36.7
2018-09-16T14:50:11.441Z,36.5
2018-09-16T14:51:11.430Z,36
2018-09-16T14:52:11.536Z,35.7
2018-09-16T14:53:11.590Z,35.5
2018-09-16T14:54:11.629Z,35.2
2018-09-16T14:55:11.696Z,35.4
2018-09-16T14:56:11.754Z,35.6
2018-09-16T14:57:11.854Z,35.7
2018-09-16T14:58:11.891Z,35.4
2018-09-16T14:59:11.961Z,35
2018-09-16T15:00:12.020Z,34.6
2018-09-16T15:01:12.087Z,34.5
2018-09-16T15:02:12.177Z,34.2
2018-09-16T15:04:12.272Z,34.4
2018-09-16T15:06:12.370Z,34.1
2018-09-16T15:07:12.410Z,33.7
2018-09-16T15:08:12.488Z,33.6
2018-09-16T15:09:12.590Z,33.5
2018-09-16T15:10:12.835Z,33.2
2018-09-16T15:11:12.702Z,32.9
2018-09-16T15:12:12.725Z,32.5
2018-09-16T15:13:12.851Z,32.1
2018-09-16T15:14:12.859Z,32
2018-09-16T15:15:12.914Z,32.1
2018-09-16T15:16:12.975Z,32.2
2018-09-16T15:17:13.026Z,32.5
2018-09-16T15:18:13.086Z,33
2018-09-16T15:20:13.207Z,32.5
2018-09-16T15:21:13.274Z,32.1
2018-09-16T15:22:13.373Z,32
2018-09-16T15:23:13.456Z,31.9
2018-09-16T15:24:13.493Z,31.5
2018-09-16T15:25:13.536Z,31
2018-09-16T15:26:13.637Z,30.8
2018-09-16T15:27:13.704Z,30.4
2018-09-16T15:28:13.698Z,30.3
2018-09-16T15:29:13.775Z,30.1
2018-09-16T15:30:14.052Z,30.3
2018-09-16T15:31:13.897Z,30
2018-09-16T15:32:13.965Z,29.6
2018-09-16T15:33:14.054Z,29.4
2018-09-16T15:34:14.068Z,29
2018-09-16T15:35:14.133Z,28.7
2018-09-16T15:36:14.227Z,28.5
2018-09-16T15:37:14.297Z,28.3
2018-09-16T15:38:14.355Z,27.9
2018-09-16T15:39:14.425Z,27.6
2018-09-16T15:40:14.488Z,27.5
2018-09-16T15:41:14.511Z,27.2
2018-09-16T15:42:14.588Z,27.1
2018-09-16T15:43:14.695Z,27.2
2018-09-16T15:44:14.728Z,27.4
2018-09-16T15:47:14.879Z,27.2
2018-09-16T15:48:15.107Z,27.1
2018-09-16T15:50:15.117Z,27
2018-09-16T15:52:15.239Z,26.9
2018-09-16T15:53:15.333Z,26.8
2018-09-16T15:55:15.462Z,26.6
2018-09-16T15:56:15.484Z,26.5
2018-09-16T15:57:15.600Z,26.4
2018-09-16T15:59:15.685Z,26.2
2018-09-16T16:01:15.751Z,26.1
2018-09-16T16:03:15.865Z,26.2
2018-09-16T16:04:15.938Z,26.4
2018-09-16T16:05:15.988Z,26.8
2018-09-16T16:06:16.057Z,27.2
2018-09-16T16:07:16.119Z,27.4
2018-09-16T16:08:16.219Z,27.2
2018-09-16T16:09:16.301Z,27.1
2018-09-16T16:10:16.348Z,27
2018-09-16T16:11:16.464Z,26.8
2018-09-16T16:12:16.510Z,26.6
2018-09-16T16:13:16.537Z,26.5
2018-09-16T16:14:16.548Z,26.2
2018-09-16T16:15:16.687Z,26.1
2018-09-16T16:16:16.760Z,26
2018-09-16T16:17:16.731Z,25.9
2018-09-16T16:18:16.798Z,25.6
2018-09-16T16:19:16.878Z,25.5
2018-09-16T16:20:16.975Z,25.3
2018-09-16T16:21:17.003Z,25.1
2018-09-16T16:22:17.052Z,24.9
2018-09-16T16:23:17.130Z,24.7
2018-09-16T16:24:17.204Z,24.5
2018-09-16T16:25:17.249Z,24.4
2018-09-16T16:26:17.377Z,24.3
2018-09-16T16:27:17.402Z,24.1
2018-09-16T16:28:17.515Z,24
2018-09-16T16:29:17.563Z,23.7
2018-09-16T16:30:17.562Z,23.6
2018-09-16T16:31:17.639Z,23.5
2018-09-16T16:32:17.724Z,23.4
2018-09-16T16:33:17.762Z,23.3
2018-09-16T16:34:17.901Z,23.1
2018-09-16T16:35:17.885Z,23
2018-09-16T16:42:18.353Z,22.9
2018-09-16T16:43:18.336Z,22.8
2018-09-16T16:47:18.653Z,22.6
2018-09-16T16:48:18.648Z,22.5
2018-09-16T16:49:18.738Z,22.2
2018-09-16T16:50:18.778Z,22.1
2018-09-16T16:51:18.848Z,22
2018-09-16T16:52:18.907Z,21.8
2018-09-16T16:53:18.955Z,21.6
2018-09-16T16:54:19.017Z,21.5
2018-09-16T16:55:19.080Z,21.4
2018-09-16T16:56:19.150Z,21.2
2018-09-16T16:57:19.248Z,21.1
2018-09-16T16:58:19.268Z,21
2018-09-16T16:59:19.388Z,20.9
2018-09-16T17:00:19.414Z,20.8
2018-09-16T17:01:19.501Z,20.6
2018-09-16T17:03:19.614Z,20.5
2018-09-16T17:04:19.635Z,20.4
2018-09-16T17:06:19.782Z,20.3
2018-09-16T17:07:19.822Z,20.1
2018-09-16T17:09:19.953Z,20
2018-09-16T17:10:20.005Z,19.9
2018-09-16T17:12:20.143Z,19.8
2018-09-16T17:13:20.256Z,19.6
2018-09-16T17:14:20.254Z,19.5
2018-09-16T17:16:20.411Z,19.4
2018-09-16T17:17:20.441Z,19.3
2018-09-16T17:18:20.552Z,19.1
2018-09-16T17:20:20.661Z,19
2018-09-16T17:21:20.704Z,18.9
2018-09-16T17:22:20.795Z,18.8
2018-09-16T17:23:20.898Z,18.6
2018-09-16T17:24:20.921Z,18.5
2018-09-16T17:25:20.976Z,18.4
2018-09-16T17:26:21.055Z,18.3
2018-09-16T17:27:21.097Z,18.1
2018-09-16T17:28:21.166Z,18
2018-09-16T17:29:21.208Z,17.9
2018-09-16T17:30:21.307Z,17.8
2018-09-16T17:31:21.360Z,17.6
2018-09-16T17:32:21.415Z,17.5
2018-09-16T17:33:21.440Z,17.4
2018-09-16T17:34:21.537Z,17.2
2018-09-16T17:35:21.587Z,17.1
2018-09-16T17:36:21.734Z,17
2018-09-16T17:38:21.724Z,16.9
2018-09-16T17:39:21.803Z,16.8
2018-09-16T17:40:21.852Z,16.6
2018-09-16T17:42:21.997Z,16.5
2018-09-16T17:43:22.031Z,16.4
2018-09-16T17:44:22.127Z,16.3
2018-09-16T17:46:22.273Z,16.1
2018-09-16T17:47:22.407Z,16
2018-09-16T17:48:22.381Z,15.9
2018-09-16T17:50:22.626Z,15.8
2018-09-16T17:51:22.727Z,15.6
2018-09-16T17:53:22.823Z,15.5
2018-09-16T17:54:22.947Z,15.4
2018-09-16T17:55:22.931Z,15.3
2018-09-16T17:58:23.113Z,15.1
2018-09-16T17:59:23.181Z,15
2018-09-16T18:01:23.335Z,14.9
2018-09-16T18:04:23.546Z,14.7
2018-09-16T18:05:23.548Z,14.6
2018-09-16T18:07:23.758Z,14.5
2018-09-16T18:09:23.836Z,14.4
2018-09-16T18:12:23.978Z,14.3
2018-09-16T18:15:24.216Z,14.1
2018-09-16T18:18:24.352Z,14
2018-09-16T18:27:24.901Z,13.9
2018-09-16T18:32:25.262Z,13.8
2018-09-16T18:35:25.431Z,13.6
2018-09-16T18:39:25.666Z,13.5
2018-09-16T18:47:26.133Z,13.4
2018-09-16T18:52:26.483Z,13.3
2018-09-16T18:58:26.839Z,13.1
2018-09-16T19:03:27.176Z,13
2018-09-16T19:07:27.407Z,12.9
2018-09-16T19:13:27.865Z,12.8
2018-09-16T19:26:28.587Z,12.6
2018-09-16T19:31:29.881Z,12.5
2018-09-16T19:41:30.490Z,12.4
2018-09-16T19:42:30.543Z,12.5
2018-09-16T19:43:30.594Z,12.4
2018-09-16T19:50:30.999Z,12.2
2018-09-16T19:51:31.053Z,12.4
2018-09-16T19:52:31.116Z,12.2
2018-09-16T19:59:31.597Z,12.1
2018-09-16T20:10:32.284Z,12
2018-09-16T20:11:32.317Z,12.1
2018-09-16T20:12:32.389Z,12
2018-09-16T20:13:32.442Z,12.1
2018-09-16T20:16:32.645Z,12
2018-09-16T20:17:32.735Z,12.1
2018-09-16T20:21:32.972Z,12
2018-09-16T20:23:33.072Z,12.1
2018-09-16T20:24:33.121Z,12
2018-09-16T20:48:34.587Z,11.9
2018-09-16T21:14:36.160Z,12
2018-09-16T21:35:37.471Z,12.1
2018-09-16T21:44:38.009Z,12.2
2018-09-16T21:46:38.159Z,12.1
2018-09-16T21:47:38.206Z,12.2
2018-09-16T22:01:39.091Z,12.4
2018-09-16T22:02:39.153Z,12.2
2018-09-16T22:03:39.266Z,12.4
2018-09-16T22:04:39.281Z,12.2
2018-09-16T22:05:39.367Z,12.4
2018-09-16T22:06:39.395Z,12.2
2018-09-16T22:07:39.437Z,12.4
2018-09-16T22:08:39.480Z,12.2
2018-09-16T22:23:40.452Z,12.1
2018-09-16T22:32:40.981Z,12
2018-09-16T22:33:41.027Z,12.1
2018-09-16T22:34:41.082Z,12
2018-09-16T22:39:41.457Z,11.9
2018-09-16T22:46:42.104Z,11.8
2018-09-16T22:54:42.348Z,11.6
2018-09-16T23:02:42.805Z,11.5
2018-09-16T23:08:43.223Z,11.4
2018-09-16T23:11:43.419Z,11.3
2018-09-16T23:15:43.613Z,11.1
2018-09-16T23:18:43.807Z,11
2018-09-16T23:21:43.986Z,10.9
2018-09-16T23:24:44.206Z,10.8
2018-09-16T23:28:44.461Z,10.6
2018-09-16T23:32:44.710Z,10.5
2018-09-16T23:37:45.016Z,10.4
2018-09-16T23:40:45.156Z,10.3
2018-09-16T23:44:45.464Z,10.1
2018-09-16T23:50:45.787Z,10
2018-09-16T23:58:46.271Z,9.9
